This is the latest recevied weather packets stored in our database for station/object EA1BQO-1. If no packets are shown the sender has not sent any weather packets the latest 10 day(s).
| Time | Temp. | Humidity | Pressure | Rain* | Wind** | Luminosity | Snow |
|---|---|---|---|---|---|---|---|
| 1778158679 | 15.56° C | 55% | 1005.3 hPa | 0 mm | - | - | - |
| 1778158079 | 15.56° C | 54% | 1005.6 hPa | 0 mm | - | - | - |
| 1778157479 | 16.11° C | 48% | 1005.8 hPa | 0 mm | - | - | - |
| 1778156879 | 16.67° C | 38% | 1005.9 hPa | 0.25 mm | - | - | - |
| 1778156279 | 18.33° C | 35% | 1005.8 hPa | 0.25 mm | - | - | - |
| 1778155679 | 17.22° C | 47% | 1005.9 hPa | 0.25 mm | - | - | - |
| 1778155079 | 16.67° C | 49% | 1006 hPa | 0.25 mm | - | - | - |
| 1778154479 | 16.67° C | 49% | 1006.1 hPa | 0.25 mm | - | - | - |
| 1778153879 | 16.11° C | 50% | 1006.3 hPa | 0.25 mm | - | - | - |
| 1778153279 | 15.56° C | 47% | 1006.4 hPa | 0 mm | - | - | - |
| 1778152679 | 16.67° C | 47% | 1006.4 hPa | 0 mm | - | - | - |
| 1778152079 | 16.67° C | 42% | 1006.3 hPa | 0 mm | - | - | - |
| 1778151479 | 17.22° C | 36% | 1006.3 hPa | 0 mm | - | - | - |
| 1778150878 | 17.22° C | 36% | 1006.3 hPa | 0 mm | - | - | - |
| 1778150278 | 17.78° C | 38% | 1006.4 hPa | 0 mm | - | - | - |
| 1778149678 | 18.33° C | 35% | 1006.6 hPa | 0 mm | - | - | - |
| 1778149079 | 18.33° C | 40% | 1006.6 hPa | 0 mm | - | - | - |
| 1778148478 | 17.78° C | 45% | 1006.7 hPa | 0 mm | - | - | - |
| 1778147879 | 17.22° C | 44% | 1006.9 hPa | 0 mm | - | - | - |
| 1778147278 | 16.67° C | 45% | 1006.8 hPa | 0 mm | - | - | - |
| 1778146678 | 16.67° C | 48% | 1007 hPa | 0 mm | - | - | - |
| 1778146078 | 16.11° C | 48% | 1007.1 hPa | 0 mm | - | - | - |
| 1778145478 | 15.56° C | 49% | 1007.2 hPa | 0 mm | - | - | - |
| 1778144878 | 15.56° C | 50% | 1007.3 hPa | 0 mm | - | - | - |
| 1778144278 | 15° C | 52% | 1007.3 hPa | 0 mm | - | - | - |
* Rain latest hour (hover to see other rain measurements)
** Current wind speed in m/s (hover to see current wind gust speed)